createdAt,value
2022-11-24T00:00:34.334Z,4.09
2022-11-24T00:03:37.074Z,4.08
2022-11-24T00:06:39.780Z,4.06
2022-11-24T00:09:42.965Z,4.01
2022-11-24T00:12:45.352Z,4.01
2022-11-24T00:15:48.373Z,4.05
2022-11-24T00:18:53.245Z,4.05
2022-11-24T00:21:56.071Z,4.04
2022-11-24T00:24:58.727Z,4.04
2022-11-24T00:28:01.552Z,4.03
2022-11-24T00:31:05.920Z,4.03
2022-11-24T00:34:13.929Z,4.03
2022-11-24T00:37:16.702Z,4.04
2022-11-24T00:40:19.483Z,4.02
2022-11-24T00:43:22.218Z,4.02
2022-11-24T00:46:25.027Z,4.05
2022-11-24T00:49:27.721Z,4.04
2022-11-24T00:52:30.742Z,4.07
2022-11-24T00:55:33.550Z,4.09
2022-11-24T00:58:37.848Z,4.07
2022-11-24T01:01:42.011Z,4.07
2022-11-24T01:04:44.813Z,4.04
2022-11-24T01:07:47.546Z,3.97
2022-11-24T01:10:50.719Z,3.96
2022-11-24T01:13:58.745Z,3.98
2022-11-24T01:17:01.456Z,3.92
2022-11-24T01:20:04.759Z,3.94
2022-11-24T01:23:08.184Z,3.97
2022-11-24T01:26:13.870Z,3.94
2022-11-24T01:29:17.119Z,3.90
2022-11-24T01:32:19.730Z,3.98
2022-11-24T01:35:22.259Z,3.96
2022-11-24T01:38:25.638Z,3.90
2022-11-24T01:41:28.482Z,3.96
2022-11-24T01:44:31.931Z,3.97
2022-11-24T01:47:40.930Z,3.97
2022-11-24T01:50:44.138Z,3.98
2022-11-24T01:53:54.304Z,3.98
2022-11-24T01:57:02.422Z,4.00
2022-11-24T02:00:08.667Z,3.98
2022-11-24T02:03:26.369Z,4.04
2022-11-24T02:06:31.702Z,4.03
2022-11-24T02:09:49.047Z,4.03
2022-11-24T02:12:55.209Z,3.97
2022-11-24T02:15:57.832Z,4.01
2022-11-24T02:19:00.777Z,3.99
2022-11-24T02:22:04.458Z,3.96
2022-11-24T02:25:34.137Z,3.92
2022-11-24T02:28:37.673Z,3.95
2022-11-24T02:31:55.554Z,3.98
2022-11-24T02:35:06.870Z,3.97
2022-11-24T02:38:15.963Z,3.93
2022-11-24T02:41:21.557Z,3.90
2022-11-24T02:44:29.541Z,3.92
2022-11-24T02:47:32.143Z,3.95
2022-11-24T02:50:34.915Z,3.97
2022-11-24T02:53:37.508Z,4.00
2022-11-24T02:56:40.145Z,4.00
2022-11-24T02:59:42.690Z,4.05
2022-11-24T03:02:45.428Z,4.03
2022-11-24T03:05:48.521Z,4.02
2022-11-24T03:08:51.302Z,4.04
2022-11-24T03:11:54.522Z,3.98
2022-11-24T03:14:57.530Z,3.96
2022-11-24T03:17:59.970Z,3.94
2022-11-24T03:21:03.583Z,3.95
2022-11-24T03:24:05.995Z,3.96
2022-11-24T03:27:08.975Z,3.93
2022-11-24T03:30:11.991Z,3.94
2022-11-24T03:33:14.660Z,3.98
2022-11-24T03:36:17.304Z,4.01
2022-11-24T03:39:20.053Z,4.02
2022-11-24T03:42:22.948Z,4.03
2022-11-24T03:48:48.558Z,4.12
2022-11-24T03:51:51.529Z,4.10
2022-11-24T03:54:53.929Z,4.02
2022-11-24T03:57:57.665Z,3.99
2022-11-24T04:01:00.635Z,3.98
2022-11-24T04:04:03.483Z,3.91
2022-11-24T04:07:05.964Z,3.89
2022-11-24T04:10:08.891Z,3.99
2022-11-24T04:13:14.330Z,3.93
2022-11-24T04:16:17.206Z,3.86
2022-11-24T04:19:19.637Z,3.80
2022-11-24T04:22:22.334Z,3.79
2022-11-24T04:25:24.774Z,3.69
2022-11-24T04:28:27.416Z,3.67
2022-11-24T04:31:30.398Z,3.66
2022-11-24T04:34:33.535Z,3.69
2022-11-24T04:37:36.428Z,3.74
2022-11-24T04:40:39.319Z,3.71
2022-11-24T04:43:41.786Z,3.74
2022-11-24T04:46:44.780Z,3.77
2022-11-24T04:49:49.026Z,3.73
2022-11-24T04:52:52.786Z,3.59
2022-11-24T04:55:55.163Z,3.65
2022-11-24T04:58:58.016Z,3.64
2022-11-24T05:02:00.518Z,3.70
2022-11-24T05:05:03.801Z,3.63
2022-11-24T05:08:06.387Z,3.68
2022-11-24T05:11:08.953Z,3.65
2022-11-24T05:14:11.786Z,3.62
2022-11-24T05:17:15.157Z,3.63
2022-11-24T05:20:18.280Z,3.69
2022-11-24T05:23:20.937Z,3.59
2022-11-24T05:26:23.409Z,3.58
2022-11-24T05:29:26.280Z,3.52
2022-11-24T05:32:28.954Z,3.51
2022-11-24T05:35:32.268Z,3.52
2022-11-24T05:38:35.823Z,3.53
2022-11-24T05:41:38.942Z,3.53
2022-11-24T05:44:41.542Z,3.55
2022-11-24T05:47:44.542Z,3.54
2022-11-24T05:50:53.687Z,3.58
2022-11-24T05:53:56.678Z,3.59
2022-11-24T05:56:59.148Z,3.64
2022-11-24T06:00:02.370Z,3.63
2022-11-24T06:03:15.132Z,3.70
2022-11-24T06:06:17.808Z,3.74
2022-11-24T06:09:20.535Z,3.70
2022-11-24T06:12:23.178Z,3.80
2022-11-24T06:15:25.951Z,3.74
2022-11-24T06:18:28.669Z,3.75
2022-11-24T06:21:31.834Z,3.74
2022-11-24T06:24:34.642Z,3.89
2022-11-24T06:27:37.340Z,3.73
2022-11-24T06:30:39.899Z,3.76
2022-11-24T06:33:42.521Z,3.58
2022-11-24T06:36:45.103Z,3.51
2022-11-24T06:39:48.504Z,3.45
2022-11-24T06:42:52.304Z,3.39
2022-11-24T06:45:55.068Z,3.49
2022-11-24T06:48:59.756Z,3.46
2022-11-24T06:52:02.443Z,3.36
2022-11-24T06:55:05.403Z,3.39
2022-11-24T06:58:08.110Z,3.41
2022-11-24T07:01:15.983Z,3.51
2022-11-24T07:04:19.656Z,3.51
2022-11-24T07:07:22.326Z,3.51
2022-11-24T07:10:24.970Z,3.45
2022-11-24T07:13:27.728Z,3.41
2022-11-24T07:16:31.910Z,3.41
2022-11-24T07:19:34.663Z,3.41
2022-11-24T07:22:37.271Z,3.41
2022-11-24T07:25:39.972Z,3.43
2022-11-24T07:28:43.923Z,3.41
2022-11-24T07:31:46.586Z,3.46
2022-11-24T07:34:49.145Z,3.60
2022-11-24T07:37:55.349Z,3.59
2022-11-24T07:41:09.840Z,3.58
2022-11-24T07:44:12.375Z,3.66
2022-11-24T07:47:15.013Z,3.63
2022-11-24T07:50:17.899Z,3.72
2022-11-24T07:53:20.728Z,3.85
2022-11-24T07:56:23.402Z,3.81
2022-11-24T07:59:26.400Z,3.95
2022-11-24T08:02:28.914Z,3.94
2022-11-24T08:05:31.671Z,3.92
2022-11-24T08:08:34.183Z,3.90
2022-11-24T08:11:37.006Z,3.97
2022-11-24T08:14:39.511Z,3.98
2022-11-24T08:17:42.482Z,3.99
2022-11-24T08:20:45.201Z,3.88
2022-11-24T08:23:47.950Z,3.79
2022-11-24T08:26:50.400Z,3.81
2022-11-24T08:29:53.440Z,3.86
2022-11-24T08:32:58.575Z,4.01
2022-11-24T08:36:06.532Z,4.04
2022-11-24T08:39:12.008Z,3.98
2022-11-24T08:42:14.785Z,4.04
2022-11-24T08:45:24.738Z,4.07
2022-11-24T08:48:28.818Z,4.21
2022-11-24T08:51:31.506Z,4.06
2022-11-24T08:54:35.044Z,4.14
2022-11-24T08:57:38.110Z,4.22
2022-11-24T09:00:40.747Z,4.26
2022-11-24T09:03:50.390Z,4.17
2022-11-24T09:06:53.748Z,4.18
2022-11-24T09:09:56.604Z,4.26
2022-11-24T09:12:59.395Z,4.38
2022-11-24T09:16:08.449Z,4.39
2022-11-24T09:19:11.318Z,4.42
2022-11-24T09:22:14.184Z,4.43
2022-11-24T09:25:17.445Z,4.40
2022-11-24T09:28:19.899Z,4.31
2022-11-24T09:31:25.671Z,4.39
2022-11-24T09:34:28.508Z,4.32
2022-11-24T09:37:33.033Z,4.24
2022-11-24T09:40:35.727Z,4.24
2022-11-24T09:43:46.064Z,4.28
2022-11-24T09:47:01.518Z,4.35
2022-11-24T09:50:18.922Z,4.38
2022-11-24T09:53:21.322Z,4.40
2022-11-24T09:56:27.923Z,4.44
2022-11-24T09:59:31.084Z,4.50
2022-11-24T10:02:35.039Z,4.28
2022-11-24T10:05:42.655Z,4.28
2022-11-24T10:09:17.374Z,4.42
2022-11-24T10:12:37.596Z,4.47
2022-11-24T10:16:00.354Z,4.51
2022-11-24T10:19:22.840Z,4.59
2022-11-24T10:22:48.302Z,4.62
2022-11-24T10:25:57.904Z,4.71
2022-11-24T10:29:09.694Z,4.71
2022-11-24T10:32:30.719Z,4.70
2022-11-24T10:35:46.457Z,4.74
2022-11-24T10:39:32.146Z,4.82
2022-11-24T10:42:37.618Z,4.84
2022-11-24T10:45:41.763Z,4.78
2022-11-24T10:48:57.005Z,4.79
2022-11-24T10:52:15.701Z,4.80
2022-11-24T10:55:21.591Z,4.81
2022-11-24T10:58:37.733Z,4.88
2022-11-24T11:01:42.111Z,4.92
2022-11-24T11:04:46.514Z,4.95
2022-11-24T11:07:51.083Z,4.93
2022-11-24T11:11:46.035Z,4.96
2022-11-24T11:14:51.646Z,4.97
2022-11-24T11:18:02.691Z,4.92
2022-11-24T11:21:07.277Z,4.92
2022-11-24T11:24:19.202Z,4.99
2022-11-24T11:27:26.044Z,5.09
2022-11-24T11:34:04.693Z,5.14
2022-11-24T11:37:13.539Z,5.14
2022-11-24T11:40:27.203Z,5.20
2022-11-24T11:43:36.016Z,5.12
2022-11-24T11:46:39.053Z,5.10
2022-11-24T11:49:42.488Z,5.22
2022-11-24T11:53:17.384Z,5.32
2022-11-24T11:56:40.537Z,5.39
2022-11-24T12:00:12.658Z,5.36
2022-11-24T12:03:33.641Z,5.38
2022-11-24T12:06:58.100Z,5.39
2022-11-24T12:10:18.203Z,5.31
2022-11-24T12:13:44.124Z,5.30
2022-11-24T12:17:07.975Z,5.33
2022-11-24T12:20:21.639Z,5.34
2022-11-24T12:23:45.640Z,5.34
2022-11-24T12:26:55.127Z,5.30
2022-11-24T12:30:03.825Z,5.36
2022-11-24T12:33:12.306Z,5.26
2022-11-24T12:36:35.004Z,5.16
2022-11-24T12:39:49.514Z,5.13
2022-11-24T12:43:09.749Z,5.16
2022-11-24T12:46:37.598Z,5.04
2022-11-24T12:50:05.081Z,5.02
2022-11-24T12:53:23.293Z,4.98
2022-11-24T12:56:55.964Z,4.96
2022-11-24T13:00:09.433Z,5.01
2022-11-24T13:03:24.307Z,4.88
2022-11-24T13:06:45.865Z,4.91
2022-11-24T13:10:46.904Z,4.84
2022-11-24T13:14:06.843Z,4.76
2022-11-24T13:17:43.233Z,4.68
2022-11-24T13:20:55.011Z,4.71
2022-11-24T13:24:03.046Z,4.67
2022-11-24T13:27:15.519Z,4.67
2022-11-24T13:30:33.416Z,4.73
2022-11-24T13:33:37.022Z,4.71
2022-11-24T13:36:53.081Z,4.72
2022-11-24T13:39:57.092Z,4.70
2022-11-24T13:43:02.140Z,4.68
2022-11-24T13:46:05.082Z,4.57
2022-11-24T13:49:14.285Z,4.50
2022-11-24T13:52:51.441Z,4.42
2022-11-24T13:56:00.221Z,4.38
2022-11-24T13:59:17.313Z,4.32
2022-11-24T14:02:23.554Z,4.33
2022-11-24T14:05:52.859Z,4.33
2022-11-24T14:08:56.114Z,4.38
2022-11-24T14:12:19.239Z,4.40
2022-11-24T14:15:29.489Z,4.38
2022-11-24T14:18:37.439Z,4.40
2022-11-24T14:21:41.638Z,4.40
2022-11-24T14:24:47.285Z,4.37
2022-11-24T14:27:50.777Z,4.36
2022-11-24T14:31:23.276Z,4.33
2022-11-24T14:34:28.828Z,4.21
2022-11-24T14:37:31.639Z,4.32
2022-11-24T14:40:43.329Z,4.16
2022-11-24T14:43:46.125Z,4.24
2022-11-24T14:46:48.858Z,4.21
2022-11-24T14:49:52.878Z,4.30
2022-11-24T14:52:57.935Z,4.29
2022-11-24T14:56:23.740Z,4.14
2022-11-24T14:59:29.346Z,4.03
2022-11-24T15:02:52.113Z,4.09
2022-11-24T15:06:00.525Z,4.02
2022-11-24T15:09:03.396Z,4.08
2022-11-24T15:12:10.093Z,4.19
2022-11-24T15:15:22.734Z,4.06
2022-11-24T15:18:36.595Z,4.06
2022-11-24T15:21:39.775Z,4.09
2022-11-24T15:24:54.234Z,4.13
2022-11-24T15:27:57.185Z,4.08
2022-11-24T15:31:01.720Z,4.13
2022-11-24T15:34:04.761Z,4.13
2022-11-24T15:37:10.251Z,4.04
2022-11-24T15:40:13.757Z,4.01
2022-11-24T15:43:31.535Z,4.02
2022-11-24T15:46:38.305Z,4.07
2022-11-24T15:49:40.875Z,4.11
2022-11-24T15:52:44.534Z,4.11
2022-11-24T15:55:47.848Z,4.07
2022-11-24T15:58:50.655Z,4.00
2022-11-24T16:01:53.218Z,4.03
2022-11-24T16:04:59.428Z,4.09
2022-11-24T16:08:02.054Z,4.10
2022-11-24T16:11:04.799Z,4.15
2022-11-24T16:14:07.281Z,4.08
2022-11-24T16:17:10.122Z,4.11
2022-11-24T16:20:13.012Z,4.08
2022-11-24T16:23:15.744Z,4.08
2022-11-24T16:26:18.442Z,4.04
2022-11-24T16:29:23.743Z,4.05
2022-11-24T16:32:26.515Z,4.05
2022-11-24T16:35:29.415Z,4.06
2022-11-24T16:38:32.260Z,4.02
2022-11-24T16:41:35.030Z,4.01
2022-11-24T16:44:37.588Z,4.08
2022-11-24T16:47:41.935Z,3.97
2022-11-24T16:50:44.694Z,4.01
2022-11-24T16:53:47.921Z,3.97
2022-11-24T16:56:50.434Z,3.96
2022-11-24T16:59:53.727Z,4.00
2022-11-24T17:02:56.553Z,4.02
2022-11-24T17:06:00.832Z,3.94
2022-11-24T17:09:03.778Z,3.91
2022-11-24T17:12:06.615Z,3.94
2022-11-24T17:15:31.706Z,3.92
2022-11-24T17:18:32.621Z,3.88
2022-11-24T17:21:35.334Z,3.86
2022-11-24T17:24:38.427Z,3.87
2022-11-24T17:27:41.715Z,3.76
2022-11-24T17:30:44.551Z,3.65
2022-11-24T17:33:48.138Z,3.68
2022-11-24T17:36:51.339Z,3.71
2022-11-24T17:40:12.945Z,3.65
2022-11-24T17:43:16.935Z,3.69
2022-11-24T17:46:20.128Z,3.75
2022-11-24T17:49:23.638Z,3.73
2022-11-24T17:52:26.432Z,3.78
2022-11-24T17:55:29.220Z,3.93
2022-11-24T17:58:37.184Z,3.88
2022-11-24T18:01:42.586Z,3.93
2022-11-24T18:04:45.751Z,3.91
2022-11-24T18:07:48.607Z,3.93
2022-11-24T18:10:51.596Z,3.88
2022-11-24T18:14:00.171Z,3.85
2022-11-24T18:17:03.450Z,3.88
2022-11-24T18:20:10.834Z,3.79
2022-11-24T18:23:15.131Z,3.69
2022-11-24T18:26:17.990Z,3.74
2022-11-24T18:29:22.831Z,3.61
2022-11-24T18:32:26.110Z,3.55
2022-11-24T18:35:29.317Z,3.61
2022-11-24T18:38:34.944Z,3.65
2022-11-24T18:41:39.660Z,3.67
2022-11-24T18:44:42.889Z,3.73
2022-11-24T18:47:45.578Z,3.73
2022-11-24T18:50:52.992Z,3.79
2022-11-24T18:53:58.238Z,3.86
2022-11-24T18:57:03.576Z,3.88
2022-11-24T19:00:07.648Z,3.85
2022-11-24T19:03:10.589Z,3.79
2022-11-24T19:06:29.045Z,3.78
2022-11-24T19:09:33.024Z,3.84
2022-11-24T19:12:36.044Z,3.81
2022-11-24T19:15:39.170Z,3.79
2022-11-24T19:18:41.967Z,3.71
2022-11-24T19:21:45.345Z,3.67
2022-11-24T19:24:50.077Z,3.61
2022-11-24T19:27:53.123Z,3.53
2022-11-24T19:31:08.366Z,3.55
2022-11-24T19:34:11.322Z,3.59
2022-11-24T19:37:14.846Z,3.59
2022-11-24T19:40:18.787Z,3.65
2022-11-24T19:43:21.560Z,3.60
2022-11-24T19:46:27.578Z,3.51
2022-11-24T19:49:30.588Z,3.44
2022-11-24T19:52:33.615Z,3.57
2022-11-24T19:55:36.400Z,3.64
2022-11-24T19:58:40.456Z,3.55
2022-11-24T20:01:43.783Z,3.48
2022-11-24T20:04:46.899Z,3.68
2022-11-24T20:07:49.866Z,3.73
2022-11-24T20:10:53.043Z,3.67
2022-11-24T20:13:56.697Z,3.65
2022-11-24T20:17:00.378Z,3.67
2022-11-24T20:20:03.286Z,3.70
2022-11-24T20:23:06.454Z,3.72
2022-11-24T20:26:15.551Z,3.65
2022-11-24T20:29:18.712Z,3.66
2022-11-24T20:32:21.790Z,3.77
2022-11-24T20:35:24.627Z,3.70
2022-11-24T20:38:29.306Z,3.74
2022-11-24T20:41:34.431Z,3.70
2022-11-24T20:44:37.749Z,3.62
2022-11-24T20:47:40.864Z,3.69
2022-11-24T20:50:48.307Z,3.63
2022-11-24T20:53:56.853Z,3.65
2022-11-24T20:56:59.720Z,3.61
2022-11-24T21:00:02.645Z,3.63
2022-11-24T21:03:07.145Z,3.59
2022-11-24T21:06:10.266Z,3.63
2022-11-24T21:09:13.122Z,3.61
2022-11-24T21:12:17.950Z,3.55
2022-11-24T21:15:21.283Z,3.58
2022-11-24T21:18:24.254Z,3.57
2022-11-24T21:21:33.958Z,3.53
2022-11-24T21:24:37.138Z,3.48
2022-11-24T21:27:40.167Z,3.51
2022-11-24T21:30:42.955Z,3.52
2022-11-24T21:33:50.503Z,3.37
2022-11-24T21:36:53.329Z,3.42
2022-11-24T21:39:56.026Z,3.25
2022-11-24T21:42:59.804Z,3.20
2022-11-24T21:46:04.695Z,3.14
2022-11-24T21:49:07.524Z,3.04
2022-11-24T21:52:09.932Z,3.03
2022-11-24T21:55:12.743Z,3.00
2022-11-24T21:58:15.546Z,2.99
2022-11-24T22:01:20.748Z,3.23
2022-11-24T22:04:23.558Z,3.25
2022-11-24T22:07:26.132Z,3.27
2022-11-24T22:10:29.822Z,3.38
2022-11-24T22:13:32.895Z,3.32
2022-11-24T22:16:35.452Z,3.27
2022-11-24T22:19:38.414Z,3.19
2022-11-24T22:22:40.891Z,3.17
2022-11-24T22:25:43.808Z,3.21
2022-11-24T22:28:47.340Z,3.24
2022-11-24T22:31:54.445Z,3.44
2022-11-24T22:34:57.307Z,3.36
2022-11-24T22:37:59.794Z,3.33
2022-11-24T22:41:08.226Z,3.29
2022-11-24T22:44:10.879Z,3.44
2022-11-24T22:47:13.412Z,3.36
2022-11-24T22:50:16.030Z,3.33
2022-11-24T22:53:18.531Z,3.29
2022-11-24T22:56:22.011Z,3.33
2022-11-24T22:59:24.751Z,3.19
2022-11-24T23:02:28.575Z,3.24
2022-11-24T23:05:33.205Z,3.29
2022-11-24T23:08:36.388Z,3.14
2022-11-24T23:11:40.507Z,3.17
2022-11-24T23:14:43.291Z,3.20
2022-11-24T23:17:45.722Z,3.12
2022-11-24T23:20:48.696Z,3.06
2022-11-24T23:23:52.168Z,3.08
2022-11-24T23:26:55.312Z,3.08
2022-11-24T23:29:58.178Z,3.01
2022-11-24T23:33:00.851Z,2.96
2022-11-24T23:36:07.062Z,2.87
2022-11-24T23:39:12.652Z,2.85
2022-11-24T23:42:15.486Z,2.85
2022-11-24T23:45:18.420Z,2.76
2022-11-24T23:48:20.877Z,2.69
2022-11-24T23:51:28.555Z,2.62
2022-11-24T23:54:31.072Z,2.63
2022-11-24T23:57:33.821Z,2.58
